Time;durP1;ratioP1;P1;durP2;ratioP2;P2;SDS_P1;SDS_P2;PMS_P1;PMS_P2;Temp;Humidity;BMP_temperature;BMP_pressure;BME280_temperature;BME280_humidity;BME280_pressure;Samples;Min_cycle;Max_cycle;Signal;HPM_P1;HPM_P2
2022/03/12 00:01:16;;;;;;;8.30;5.53;;;7.60;87.40;;;;;;5010577;28;20545;-74
2022/03/12 00:03:47;;;;;;;10.10;6.03;;;7.60;87.20;;;;;;5007937;28;20030;-74
2022/03/12 00:06:13;;;;;;;10.23;5.85;;;7.50;87.50;;;;;;5009696;28;20475;-74
2022/03/12 00:08:46;;;;;;;11.10;6.65;;;7.50;87.70;;;;;;5004981;28;20125;-74
2022/03/12 00:11:22;;;;;;;9.93;5.85;;;7.50;87.50;;;;;;5005502;28;20030;-74
2022/03/12 00:13:53;;;;;;;10.25;6.85;;;7.50;88.00;;;;;;5008709;28;20022;-75
2022/03/12 00:16:24;;;;;;;12.25;6.22;;;7.50;88.50;;;;;;5007750;28;20095;-74
2022/03/12 00:18:58;;;;;;;10.77;6.82;;;7.50;88.60;;;;;;5008836;28;20014;-74
2022/03/12 00:21:27;;;;;;;14.77;7.25;;;7.50;88.60;;;;;;5008925;28;20040;-75
2022/03/12 00:23:53;;;;;;;10.82;6.85;;;7.40;89.30;;;;;;5008656;28;20036;-75
2022/03/12 00:26:21;;;;;;;9.68;6.95;;;7.40;89.60;;;;;;5008414;28;20041;-75
2022/03/12 00:28:47;;;;;;;11.10;7.43;;;7.30;90.10;;;;;;5009842;28;20030;-75
2022/03/12 00:31:13;;;;;;;15.10;7.72;;;7.30;90.30;;;;;;5009548;28;20083;-75
2022/03/12 00:33:39;;;;;;;18.58;9.73;;;7.30;90.40;;;;;;5010045;28;20060;-75
2022/03/12 00:36:06;;;;;;;16.27;9.55;;;7.20;90.30;;;;;;5009930;28;20058;-75
2022/03/12 00:38:31;;;;;;;17.60;8.88;;;7.20;90.40;;;;;;5009941;28;20120;-75
2022/03/12 00:40:57;;;;;;;16.63;9.00;;;7.20;90.50;;;;;;5009945;28;20508;-75
2022/03/12 00:43:23;;;;;;;19.73;9.48;;;7.20;90.60;;;;;;5077475;28;20030;-75
2022/03/12 00:45:49;;;;;;;17.05;9.77;;;7.20;90.60;;;;;;5077522;28;20122;-75
2022/03/12 00:48:16;;;;;;;16.85;9.05;;;7.20;90.50;;;;;;5009907;28;20034;-75
2022/03/12 00:50:42;;;;;;;14.18;8.10;;;7.20;90.60;;;;;;5009586;28;20692;-75
2022/03/12 00:53:07;;;;;;;17.58;8.63;;;7.20;90.80;;;;;;5010115;28;20131;-75
2022/03/12 00:55:34;;;;;;;14.40;8.30;;;7.10;91.00;;;;;;5009695;28;20474;-75
2022/03/12 00:58:00;;;;;;;16.45;8.15;;;7.10;91.20;;;;;;5009673;28;20044;-75
2022/03/12 01:00:26;;;;;;;12.45;8.27;;;7.10;91.30;;;;;;5077283;28;20026;-75
2022/03/12 01:02:52;;;;;;;14.10;8.13;;;7.10;91.30;;;;;;5009464;28;20034;-75
2022/03/12 01:05:21;;;;;;;14.93;7.75;;;7.00;91.40;;;;;;5009408;28;20064;-75
2022/03/12 01:07:48;;;;;;;15.25;7.70;;;7.00;91.40;;;;;;5009412;28;20057;-75
2022/03/12 01:10:14;;;;;;;13.25;7.85;;;6.90;91.60;;;;;;5009490;28;20030;-73
2022/03/12 01:12:43;;;;;;;15.07;7.75;;;6.80;91.90;;;;;;5009267;28;20030;-72
2022/03/12 01:15:10;;;;;;;12.35;7.85;;;6.70;92.00;;;;;;5009383;28;20018;-75
2022/03/12 01:17:35;;;;;;;14.57;7.95;;;6.80;92.10;;;;;;5077035;28;20479;-76
2022/03/12 01:20:02;;;;;;;13.68;7.72;;;6.70;91.90;;;;;;5076924;28;20037;-73
2022/03/12 01:22:35;;;;;;;13.48;7.90;;;6.70;91.90;;;;;;5009167;28;20034;-73
2022/03/12 01:25:02;;;;;;;14.55;8.30;;;6.70;91.90;;;;;;5008637;28;20030;-73
2022/03/12 01:27:28;;;;;;;11.30;7.18;;;6.80;91.90;;;;;;5008561;28;20509;-73
2022/03/12 01:29:54;;;;;;;15.43;8.43;;;6.80;91.50;;;;;;5009266;28;20038;-74
2022/03/12 01:32:20;;;;;;;12.68;7.90;;;6.80;91.50;;;;;;5009036;28;20033;-74
2022/03/12 01:34:45;;;;;;;14.15;7.60;;;6.80;91.40;;;;;;5008949;28;20034;-75
2022/03/12 01:37:12;;;;;;;15.07;7.80;;;6.80;91.40;;;;;;5076719;28;20026;-75
2022/03/12 01:39:37;;;;;;;18.55;8.93;;;6.80;91.30;;;;;;5009198;28;20579;-75
2022/03/12 01:42:07;;;;;;;16.15;8.43;;;6.80;91.20;;;;;;5009077;28;20267;-75
2022/03/12 01:44:33;;;;;;;15.13;8.85;;;6.80;91.20;;;;;;5009098;28;20030;-73
2022/03/12 01:46:59;;;;;;;16.83;8.43;;;6.80;90.90;;;;;;5076762;28;20120;-73
2022/03/12 01:49:28;;;;;;;16.35;8.70;;;6.70;90.90;;;;;;5008879;28;20026;-73
2022/03/12 01:51:54;;;;;;;20.55;9.05;;;6.70;90.90;;;;;;5008669;28;20037;-73
2022/03/12 01:54:25;;;;;;;18.52;9.25;;;6.70;90.70;;;;;;5008932;28;20048;-75
2022/03/12 01:56:54;;;;;;;16.55;9.40;;;6.70;90.70;;;;;;5023878;28;20026;-75
2022/03/12 01:59:21;;;;;;;16.73;9.30;;;6.70;90.80;;;;;;5009052;28;20383;-75
2022/03/12 02:01:55;;;;;;;16.25;9.05;;;6.70;90.90;;;;;;5008762;28;20071;-75
2022/03/12 02:04:22;;;;;;;15.02;7.90;;;6.70;90.90;;;;;;5008825;28;20536;-75
2022/03/12 02:06:50;;;;;;;13.13;8.45;;;6.70;91.00;;;;;;5008911;28;20063;-75
2022/03/12 02:09:17;;;;;;;17.25;9.25;;;6.60;91.00;;;;;;5008662;28;20106;-76
2022/03/12 02:11:50;;;;;;;17.25;9.32;;;6.70;90.90;;;;;;5076409;28;20059;-75
2022/03/12 02:14:18;;;;;;;14.88;8.90;;;6.70;90.80;;;;;;5008635;28;20053;-76
2022/03/12 02:16:56;;;;;;;23.88;10.57;;;6.70;90.60;;;;;;5076585;28;20487;-75
2022/03/12 02:19:25;;;;;;;16.63;8.95;;;6.70;90.50;;;;;;5008777;28;20503;-76
2022/03/12 02:21:59;;;;;;;17.35;8.95;;;6.70;90.40;;;;;;5076332;28;20022;-76
2022/03/12 02:24:30;;;;;;;18.00;9.40;;;6.70;90.40;;;;;;5008500;28;20030;-76
2022/03/12 02:26:59;;;;;;;16.63;9.13;;;6.70;90.40;;;;;;5008854;28;20049;-75
2022/03/12 02:29:26;;;;;;;19.50;9.05;;;6.70;90.30;;;;;;5009648;28;20037;-75
2022/03/12 02:31:56;;;;;;;20.35;9.90;;;6.70;90.30;;;;;;5008956;28;20034;-75
2022/03/12 02:34:30;;;;;;;19.50;9.68;;;6.70;90.20;;;;;;5009639;28;20029;-76
2022/03/12 02:36:57;;;;;;;18.25;9.77;;;6.70;90.30;;;;;;5008761;28;20025;-76
2022/03/12 02:39:25;;;;;;;20.77;9.63;;;6.70;90.30;;;;;;5076376;28;20399;-75
2022/03/12 02:41:51;;;;;;;16.33;9.48;;;6.70;90.30;;;;;;5011787;28;20109;-75
2022/03/12 02:44:22;;;;;;;17.83;9.70;;;6.70;90.30;;;;;;5079851;28;20061;-75
2022/03/12 02:47:15;;;;;;;17.25;9.35;;;6.70;90.30;;;;;;5079705;28;20034;-76
2022/03/12 02:49:50;;;;;;;17.13;9.23;;;6.70;90.30;;;;;;5011662;28;20405;-76
2022/03/12 02:52:18;;;;;;;17.50;9.23;;;6.70;90.10;;;;;;5011598;28;20030;-75
2022/03/12 02:54:44;;;;;;;21.80;8.93;;;6.70;90.30;;;;;;5079656;28;20108;-75
2022/03/12 02:57:11;;;;;;;19.85;9.30;;;6.70;90.20;;;;;;5011498;28;20074;-76
2022/03/12 02:59:38;;;;;;;19.02;9.75;;;6.70;90.10;;;;;;5011667;28;20022;-75
2022/03/12 03:02:07;;;;;;;21.13;9.75;;;6.70;90.00;;;;;;5011632;28;20030;-76
2022/03/12 03:04:38;;;;;;;17.90;9.65;;;6.70;89.90;;;;;;5011385;28;20475;-75
2022/03/12 03:07:05;;;;;;;13.55;8.88;;;6.70;90.00;;;;;;5011483;28;20025;-75
2022/03/12 03:09:31;;;;;;;17.52;9.27;;;6.70;90.10;;;;;;5011236;28;20480;-75
2022/03/12 03:11:57;;;;;;;17.20;9.10;;;6.70;90.10;;;;;;5011291;28;20059;-75
2022/03/12 03:14:27;;;;;;;15.90;9.88;;;6.70;90.10;;;;;;5011074;28;20053;-75
2022/03/12 03:16:59;;;;;;;14.98;9.07;;;6.70;90.30;;;;;;5079318;28;20086;-75
2022/03/12 03:19:26;;;;;;;22.27;9.80;;;6.60;90.30;;;;;;5011219;28;20026;-75
2022/03/12 03:21:57;;;;;;;18.98;9.43;;;6.60;90.40;;;;;;5078357;28;20029;-75
2022/03/12 03:24:24;;;;;;;17.10;9.27;;;6.60;90.50;;;;;;5011031;28;20104;-75
2022/03/12 03:27:00;;;;;;;16.05;9.43;;;6.50;91.00;;;;;;5078734;28;20060;-75
2022/03/12 03:29:29;;;;;;;16.27;9.07;;;6.50;90.70;;;;;;5010907;28;20068;-75
2022/03/12 03:31:56;;;;;;;17.05;9.65;;;6.50;90.90;;;;;;5010901;28;20059;-75
2022/03/12 03:34:23;;;;;;;16.35;9.05;;;6.60;90.90;;;;;;5011041;28;20048;-76
2022/03/12 03:36:49;;;;;;;21.63;10.02;;;6.60;90.70;;;;;;5011100;28;20022;-75
2022/03/12 03:39:16;;;;;;;23.17;10.50;;;6.60;90.70;;;;;;5078908;28;20018;-75
2022/03/12 03:41:42;;;;;;;21.85;10.55;;;6.60;90.60;;;;;;5010906;28;20447;-75
2022/03/12 03:44:07;;;;;;;21.38;9.43;;;6.60;90.70;;;;;;5010929;28;20022;-75
2022/03/12 03:46:34;;;;;;;16.88;10.00;;;6.60;90.80;;;;;;5010791;28;20328;-75
2022/03/12 03:49:01;;;;;;;19.95;9.98;;;6.60;90.90;;;;;;5078654;28;20064;-75
2022/03/12 03:51:27;;;;;;;19.75;9.52;;;6.60;90.80;;;;;;5078234;28;20125;-75
2022/03/12 03:53:52;;;;;;;14.27;9.05;;;6.70;90.60;;;;;;5010657;28;20034;-76
2022/03/12 03:56:19;;;;;;;15.68;9.25;;;6.70;90.60;;;;;;5010482;28;20124;-75
2022/03/12 03:58:45;;;;;;;19.25;9.38;;;6.70;90.50;;;;;;5010707;28;20018;-76
2022/03/12 04:01:15;;;;;;;18.40;9.48;;;6.70;90.70;;;;;;5024971;28;20033;-76
2022/03/12 04:03:47;;;;;;;20.02;10.05;;;6.70;90.60;;;;;;5010156;28;20971;-75
2022/03/12 04:06:18;;;;;;;20.10;9.48;;;6.70;90.70;;;;;;5005328;28;20053;-75
2022/03/12 04:08:44;;;;;;;17.38;9.85;;;6.70;90.70;;;;;;5009371;28;20069;-75
2022/03/12 04:11:20;;;;;;;17.63;10.00;;;6.70;90.80;;;;;;5008499;28;20368;-76
2022/03/12 04:13:47;;;;;;;17.35;9.85;;;6.70;90.80;;;;;;5076205;28;20033;-76
2022/03/12 04:16:14;;;;;;;18.20;10.05;;;6.70;91.00;;;;;;5008529;28;20022;-76
2022/03/12 04:18:45;;;;;;;16.60;10.68;;;6.70;91.10;;;;;;5008415;28;20026;-76
2022/03/12 04:21:13;;;;;;;20.48;9.88;;;6.70;91.00;;;;;;5008306;28;20064;-75
2022/03/12 04:23:42;;;;;;;19.92;11.10;;;6.70;91.00;;;;;;5008368;28;20337;-75
2022/03/12 04:26:09;;;;;;;20.15;10.13;;;6.70;91.10;;;;;;5007862;28;20389;-76
2022/03/12 04:28:36;;;;;;;14.93;9.40;;;6.80;91.00;;;;;;5008607;28;20155;-76
2022/03/12 04:31:03;;;;;;;15.60;9.40;;;6.80;91.20;;;;;;5008533;28;20034;-75
2022/03/12 04:33:29;;;;;;;18.80;10.30;;;6.70;91.40;;;;;;5008473;28;20578;-76
2022/03/12 04:35:57;;;;;;;20.55;10.32;;;6.70;91.90;;;;;;5008252;28;20475;-75
2022/03/12 04:38:23;;;;;;;16.27;10.27;;;6.70;92.20;;;;;;5010196;28;20021;-76
2022/03/12 04:40:49;;;;;;;18.85;10.13;;;6.70;91.90;;;;;;5009999;28;20033;-75
2022/03/12 04:43:15;;;;;;;15.32;9.95;;;6.70;91.80;;;;;;5010078;28;20022;-76
2022/03/12 04:45:46;;;;;;;19.42;10.32;;;6.70;91.90;;;;;;5009971;28;20026;-76
2022/03/12 04:48:21;;;;;;;22.98;9.60;;;6.70;91.80;;;;;;5009998;28;20022;-76
2022/03/12 04:50:48;;;;;;;19.55;10.23;;;6.70;91.70;;;;;;5009646;28;20045;-76
2022/03/12 04:53:15;;;;;;;16.38;10.57;;;6.70;91.70;;;;;;5009921;28;20022;-76
2022/03/12 04:55:44;;;;;;;21.25;9.23;;;6.60;92.10;;;;;;5009506;28;20022;-75
2022/03/12 04:58:10;;;;;;;19.67;9.02;;;6.60;92.50;;;;;;5077319;28;20057;-76
2022/03/12 05:00:38;;;;;;;14.77;9.32;;;6.60;92.40;;;;;;5009660;28;20026;-75
2022/03/12 05:03:11;;;;;;;15.93;9.27;;;6.60;92.30;;;;;;5008856;28;20026;-75
2022/03/12 05:05:41;;;;;;;20.35;10.57;;;6.60;92.20;;;;;;5009663;28;20537;-75
2022/03/12 05:08:15;;;;;;;20.75;9.88;;;6.60;92.30;;;;;;5009665;28;20017;-75
2022/03/12 05:10:42;;;;;;;13.68;9.85;;;6.50;92.60;;;;;;5077109;28;20026;-75
2022/03/12 05:13:10;;;;;;;14.73;8.90;;;6.50;93.10;;;;;;5009249;28;20048;-75
2022/03/12 05:15:39;;;;;;;17.83;10.13;;;6.50;92.70;;;;;;5009166;28;20022;-75
2022/03/12 05:18:11;;;;;;;17.45;9.70;;;6.50;92.60;;;;;;5009291;28;20112;-76
2022/03/12 05:20:46;;;;;;;15.77;9.55;;;6.50;92.50;;;;;;5009363;28;20022;-73
2022/03/12 05:23:12;;;;;;;20.15;10.35;;;6.60;92.60;;;;;;5009561;28;20129;-75
2022/03/12 05:25:42;;;;;;;18.13;9.50;;;6.50;92.70;;;;;;5009283;28;20398;-75
2022/03/12 05:28:10;;;;;;;17.00;9.30;;;6.60;92.80;;;;;;5009218;28;20032;-76
2022/03/12 05:30:36;;;;;;;16.15;9.82;;;6.50;92.80;;;;;;5009266;28;20037;-75
2022/03/12 05:33:04;;;;;;;17.23;9.93;;;6.50;93.00;;;;;;5009056;28;20065;-75
2022/03/12 05:35:30;;;;;;;16.95;9.85;;;6.50;93.70;;;;;;5009201;28;20025;-75
2022/03/12 05:37:55;;;;;;;16.42;9.18;;;6.50;93.60;;;;;;5009103;28;20416;-75
2022/03/12 05:40:25;;;;;;;15.13;9.57;;;6.50;93.00;;;;;;5009209;28;20475;-75
2022/03/12 05:42:53;;;;;;;17.52;9.75;;;6.60;92.80;;;;;;5009043;28;20406;-75
2022/03/12 05:45:21;;;;;;;18.92;9.40;;;6.60;92.60;;;;;;5009070;28;20522;-75
2022/03/12 05:47:49;;;;;;;21.00;10.15;;;6.60;92.70;;;;;;5009008;28;20029;-75
2022/03/12 05:50:15;;;;;;;17.77;9.45;;;6.60;92.70;;;;;;5010019;28;20592;-74
2022/03/12 05:52:51;;;;;;;19.75;10.57;;;6.60;93.10;;;;;;5093356;28;20031;-74
2022/03/12 05:55:21;;;;;;;18.90;11.88;;;6.60;93.40;;;;;;5094914;28;20441;-74
2022/03/12 05:57:47;;;;;;;26.02;14.82;;;6.50;92.60;;;;;;5113296;28;20016;-74
2022/03/12 06:00:15;;;;;;;34.60;14.18;;;6.50;90.00;;;;;;5112360;28;20076;-74
2022/03/12 06:03:01;;;;;;;26.50;13.55;;;6.40;89.00;;;;;;5111990;28;21097;-74
2022/03/12 06:05:27;;;;;;;25.42;14.38;;;6.40;87.90;;;;;;5111863;28;20362;-74
2022/03/12 06:07:54;;;;;;;30.63;14.77;;;6.40;87.50;;;;;;5111798;28;20034;-74
2022/03/12 06:10:28;;;;;;;27.02;14.15;;;6.40;87.40;;;;;;5111970;28;20031;-74
2022/03/12 06:12:53;;;;;;;27.40;14.32;;;6.40;86.00;;;;;;5111934;28;20034;-74
2022/03/12 06:15:24;;;;;;;27.48;15.20;;;6.40;85.50;;;;;;5114842;28;20027;-74
2022/03/12 06:17:50;;;;;;;23.73;14.05;;;6.30;85.50;;;;;;5080305;28;20034;-74
2022/03/12 06:20:17;;;;;;;21.60;13.35;;;6.30;84.50;;;;;;5012031;28;20029;-74
2022/03/12 06:22:44;;;;;;;22.63;13.05;;;6.30;83.90;;;;;;5012327;28;20034;-74
2022/03/12 06:25:13;;;;;;;20.35;11.93;;;6.30;83.40;;;;;;5012007;28;20026;-74
2022/03/12 06:27:42;;;;;;;21.75;12.77;;;6.30;82.70;;;;;;5011981;28;20046;-74
2022/03/12 06:30:10;;;;;;;23.23;12.98;;;6.30;81.70;;;;;;5012053;28;20026;-74
2022/03/12 06:32:38;;;;;;;20.65;12.55;;;6.30;81.90;;;;;;5012139;28;20041;-74
2022/03/12 06:35:06;;;;;;;22.30;12.43;;;6.40;82.30;;;;;;5012563;28;20162;-74
2022/03/12 06:37:32;;;;;;;24.83;13.27;;;6.40;82.10;;;;;;5012894;28;20022;-74
2022/03/12 06:40:00;;;;;;;24.42;12.75;;;6.40;81.80;;;;;;5080846;28;20030;-74
2022/03/12 06:42:29;;;;;;;24.52;13.60;;;6.50;81.10;;;;;;5012602;28;20033;-75
2022/03/12 06:44:55;;;;;;;20.95;12.00;;;6.50;80.90;;;;;;5080837;28;20030;-74
2022/03/12 06:47:23;;;;;;;22.10;12.32;;;6.60;80.00;;;;;;5080140;28;20038;-74
2022/03/12 06:49:48;;;;;;;23.25;13.20;;;6.60;80.20;;;;;;5012147;28;20026;-74
2022/03/12 06:52:14;;;;;;;26.25;13.43;;;6.70;80.50;;;;;;5079895;28;20436;-75
2022/03/12 06:54:40;;;;;;;27.95;13.95;;;6.70;79.30;;;;;;5080170;28;20030;-75
2022/03/12 06:57:06;;;;;;;21.67;12.02;;;6.70;79.00;;;;;;5080160;28;20033;-74
2022/03/12 06:59:32;;;;;;;23.30;12.02;;;6.70;78.90;;;;;;5011752;28;20033;-74
2022/03/12 07:01:58;;;;;;;23.23;12.57;;;6.70;78.30;;;;;;5079968;28;20387;-74
2022/03/12 07:04:24;;;;;;;24.20;13.45;;;6.70;78.30;;;;;;5011393;28;20086;-74
2022/03/12 07:06:50;;;;;;;29.58;12.85;;;6.70;78.40;;;;;;5011825;28;20079;-74
2022/03/12 07:09:18;;;;;;;22.20;12.57;;;6.70;78.00;;;;;;5011854;28;20038;-74
2022/03/12 07:11:44;;;;;;;23.23;12.38;;;6.80;78.40;;;;;;5079967;28;20395;-74
2022/03/12 07:14:11;;;;;;;21.65;12.93;;;6.80;77.00;;;;;;5079072;28;20029;-74
2022/03/12 07:16:37;;;;;;;23.70;12.90;;;6.80;77.60;;;;;;5079362;28;20556;-76
2022/03/12 07:19:03;;;;;;;27.52;12.50;;;6.80;77.30;;;;;;5010949;28;20949;-76
2022/03/12 07:21:29;;;;;;;25.20;14.02;;;6.90;77.80;;;;;;5079377;28;20062;-75
2022/03/12 07:23:56;;;;;;;22.30;12.55;;;6.90;77.70;;;;;;5011373;28;20116;-76
2022/03/12 07:26:22;;;;;;;22.08;12.07;;;7.00;77.70;;;;;;5010366;28;20099;-75
2022/03/12 07:28:48;;;;;;;21.83;12.48;;;7.00;77.10;;;;;;5011168;28;20026;-76
2022/03/12 07:31:18;;;;;;;20.10;11.82;;;7.00;76.20;;;;;;5011262;28;20067;-75
2022/03/12 07:33:44;;;;;;;23.25;12.82;;;7.00;76.00;;;;;;5078999;28;20030;-75
2022/03/12 07:36:11;;;;;;;23.45;12.48;;;7.00;76.00;;;;;;5011044;28;20022;-76
2022/03/12 07:38:37;;;;;;;22.02;12.60;;;7.10;76.50;;;;;;5010936;28;20114;-75
2022/03/12 07:41:02;;;;;;;19.55;12.32;;;7.10;76.30;;;;;;5078845;28;20068;-75
2022/03/12 07:43:28;;;;;;;24.15;12.93;;;7.10;76.30;;;;;;5010983;28;20025;-76
2022/03/12 07:45:54;;;;;;;26.17;13.68;;;7.10;75.40;;;;;;5010759;28;20494;-76
2022/03/12 07:48:20;;;;;;;26.70;12.82;;;7.20;75.10;;;;;;5010859;28;20030;-75
2022/03/12 07:50:47;;;;;;;23.63;11.70;;;7.20;75.50;;;;;;5077982;28;20379;-76
2022/03/12 07:53:13;;;;;;;22.75;12.13;;;7.10;74.60;;;;;;5065958;28;20403;-75
2022/03/12 07:55:41;;;;;;;21.02;11.52;;;7.10;75.00;;;;;;5008154;28;20476;-75
2022/03/12 07:58:08;;;;;;;21.88;12.98;;;7.10;74.70;;;;;;5012129;28;20022;-76
2022/03/12 08:00:34;;;;;;;23.95;13.50;;;7.20;75.00;;;;;;5012484;28;20371;-75
2022/03/12 08:02:59;;;;;;;20.98;12.48;;;7.10;74.40;;;;;;5011985;28;20038;-75
2022/03/12 08:05:26;;;;;;;24.20;13.65;;;7.20;74.70;;;;;;5078318;28;20387;-75
2022/03/12 08:07:54;;;;;;;24.02;13.63;;;7.20;74.10;;;;;;5009967;28;20434;-73
2022/03/12 08:10:21;;;;;;;25.35;13.85;;;7.10;73.70;;;;;;5008974;28;20060;-76
2022/03/12 08:12:47;;;;;;;23.17;13.52;;;7.20;74.20;;;;;;5009216;28;20029;-75
2022/03/12 08:15:15;;;;;;;18.27;12.18;;;7.30;74.50;;;;;;5076590;28;20071;-75
2022/03/12 08:17:41;;;;;;;24.30;13.38;;;7.30;73.20;;;;;;5008702;28;20025;-76
2022/03/12 08:20:08;;;;;;;29.55;13.73;;;7.30;74.00;;;;;;5077042;28;20062;-75
2022/03/12 08:22:45;;;;;;;22.88;12.88;;;7.30;74.30;;;;;;5008670;28;20096;-75
2022/03/12 08:25:13;;;;;;;22.70;12.65;;;7.40;73.50;;;;;;5076140;28;20112;-75
2022/03/12 08:27:39;;;;;;;29.00;14.23;;;7.40;74.20;;;;;;5010726;28;20053;-75
2022/03/12 08:30:10;;;;;;;25.13;12.45;;;7.40;73.90;;;;;;5011710;28;20034;-73
2022/03/12 08:32:36;;;;;;;20.02;12.38;;;7.50;73.60;;;;;;5011590;28;20065;-75
2022/03/12 08:35:07;;;;;;;24.63;12.98;;;7.50;74.20;;;;;;5011042;28;20115;-75
2022/03/12 08:37:36;;;;;;;22.60;13.30;;;7.60;74.10;;;;;;5009650;28;20044;-76
2022/03/12 08:40:04;;;;;;;22.92;12.85;;;7.60;74.40;;;;;;5010527;28;20030;-75
2022/03/12 08:42:30;;;;;;;25.38;12.52;;;7.60;74.50;;;;;;5076336;28;20034;-75
2022/03/12 08:44:56;;;;;;;25.92;13.40;;;7.60;73.40;;;;;;5001039;28;20125;-73
2022/03/12 08:47:21;;;;;;;27.45;13.65;;;7.50;74.30;;;;;;5001265;28;20105;-73
2022/03/12 08:49:48;;;;;;;26.52;13.25;;;7.60;73.80;;;;;;5000460;28;20535;-73
2022/03/12 08:52:13;;;;;;;23.52;12.38;;;7.70;73.70;;;;;;5000406;28;20472;-75
2022/03/12 08:54:39;;;;;;;22.63;12.38;;;7.70;72.50;;;;;;5000517;28;20022;-75
2022/03/12 08:57:05;;;;;;;24.45;13.38;;;7.70;71.70;;;;;;5001437;28;20022;-75
2022/03/12 08:59:31;;;;;;;25.08;12.77;;;7.70;72.10;;;;;;5067079;28;20058;-76
2022/03/12 09:01:57;;;;;;;28.35;12.45;;;7.60;72.40;;;;;;5002049;28;20468;-75
2022/03/12 09:04:23;;;;;;;24.27;12.95;;;7.60;72.20;;;;;;5000164;28;20104;-74
2022/03/12 09:06:49;;;;;;;28.88;12.07;;;7.60;72.30;;;;;;5000746;28;20133;-74
2022/03/12 09:09:15;;;;;;;21.45;12.35;;;7.60;72.90;;;;;;5061848;28;20034;-75
2022/03/12 09:11:41;;;;;;;24.40;13.32;;;7.70;73.00;;;;;;5065421;28;20026;-74
2022/03/12 09:14:07;;;;;;;28.98;14.20;;;7.70;72.70;;;;;;5063124;28;20018;-74
2022/03/12 09:16:36;;;;;;;28.98;14.00;;;7.70;73.50;;;;;;4999359;28;20034;-74
2022/03/12 09:19:02;;;;;;;23.77;13.07;;;7.60;71.20;;;;;;4995626;28;20429;-74
2022/03/12 09:21:28;;;;;;;24.20;13.88;;;7.60;71.30;;;;;;5030250;28;20018;-74
2022/03/12 09:23:54;;;;;;;23.23;13.15;;;7.70;71.60;;;;;;5015903;28;20289;-74
2022/03/12 09:26:21;;;;;;;25.85;13.82;;;7.70;71.40;;;;;;4996474;28;20038;-74
2022/03/12 09:28:48;;;;;;;23.30;13.25;;;7.70;71.50;;;;;;5065216;28;20022;-73
2022/03/12 09:31:14;;;;;;;27.67;13.65;;;7.80;71.40;;;;;;5066109;28;20086;-74
2022/03/12 09:33:41;;;;;;;24.60;13.13;;;7.90;71.50;;;;;;5007722;28;20018;-75
2022/03/12 09:36:08;;;;;;;24.77;12.43;;;7.80;70.50;;;;;;5066895;28;20038;-74
2022/03/12 09:38:34;;;;;;;22.60;12.73;;;7.80;69.70;;;;;;5007609;28;20025;-75
2022/03/12 09:40:59;;;;;;;26.52;12.90;;;7.80;69.90;;;;;;4997436;28;20010;-74
2022/03/12 09:43:25;;;;;;;27.73;12.68;;;7.90;69.80;;;;;;4998737;28;20663;-75
2022/03/12 09:45:51;;;;;;;29.30;13.25;;;8.00;70.10;;;;;;5013889;28;20072;-75
2022/03/12 09:48:18;;;;;;;26.13;14.02;;;8.00;69.70;;;;;;5009878;28;20036;-74
2022/03/12 09:50:43;;;;;;;28.83;14.75;;;8.10;69.80;;;;;;5074080;28;20026;-74
2022/03/12 09:53:09;;;;;;;24.92;13.35;;;8.10;69.30;;;;;;5005952;28;20041;-74
2022/03/12 09:55:35;;;;;;;28.67;14.93;;;8.20;69.80;;;;;;4989026;28;20253;-74
2022/03/12 09:58:01;;;;;;;23.38;12.98;;;8.20;68.30;;;;;;5053203;28;20076;-74
2022/03/12 10:00:26;;;;;;;26.75;13.90;;;8.20;69.10;;;;;;5053961;28;20019;-74
2022/03/12 10:02:52;;;;;;;28.73;16.30;;;8.30;70.70;;;;;;4999552;28;20372;-74
2022/03/12 10:05:18;;;;;;;28.02;14.43;;;8.20;68.50;;;;;;5107968;28;20051;-74
2022/03/12 10:07:44;;;;;;;23.85;14.13;;;8.30;69.40;;;;;;5080443;28;20055;-75
2022/03/12 10:10:19;;;;;;;26.45;13.77;;;8.40;70.40;;;;;;5001182;28;20398;-73
2022/03/12 10:12:46;;;;;;;26.80;13.63;;;8.40;69.00;;;;;;5005614;28;20672;-74
2022/03/12 10:15:14;;;;;;;28.67;15.75;;;8.40;69.30;;;;;;5004020;28;20418;-73
2022/03/12 10:17:41;;;;;;;28.90;14.40;;;8.60;69.60;;;;;;5088793;28;20033;-74
2022/03/12 10:20:11;;;;;;;23.13;12.15;;;8.60;69.50;;;;;;5009736;28;20087;-74
2022/03/12 10:22:40;;;;;;;24.48;13.50;;;8.60;68.30;;;;;;5009367;28;20489;-74
2022/03/12 10:25:07;;;;;;;27.75;15.00;;;8.70;68.20;;;;;;4997963;28;20450;-74
2022/03/12 10:27:34;;;;;;;27.35;14.77;;;8.60;68.20;;;;;;4992330;28;20054;-74
2022/03/12 10:30:00;;;;;;;25.95;13.88;;;8.80;69.80;;;;;;5060736;28;20047;-74
2022/03/12 10:32:32;;;;;;;23.15;13.55;;;8.80;68.40;;;;;;5009083;28;20087;-74
2022/03/12 10:35:01;;;;;;;30.05;14.77;;;8.90;68.60;;;;;;5037686;28;20075;-75
2022/03/12 10:37:32;;;;;;;25.60;14.07;;;8.90;67.90;;;;;;5009353;28;20060;-74
2022/03/12 10:40:13;;;;;;;26.87;14.73;;;8.90;68.20;;;;;;5076685;28;20117;-75
2022/03/12 10:42:57;;;;;;;25.52;13.50;;;8.90;68.70;;;;;;5009145;28;20261;-75
2022/03/12 10:45:25;;;;;;;26.73;13.57;;;9.00;70.00;;;;;;5061481;28;20491;-75
2022/03/12 10:48:02;;;;;;;23.58;14.18;;;9.00;67.80;;;;;;4999274;28;20069;-75
2022/03/12 10:50:51;;;;;;;29.52;15.63;;;9.00;67.10;;;;;;5080101;28;20120;-75
2022/03/12 10:53:18;;;;;;;27.65;14.15;;;9.00;68.30;;;;;;5055429;28;20088;-75
2022/03/12 10:55:46;;;;;;;27.35;13.70;;;9.10;67.50;;;;;;4999852;28;20024;-74
2022/03/12 10:58:21;;;;;;;26.08;13.82;;;9.20;67.00;;;;;;5007475;28;20105;-75
2022/03/12 11:00:57;;;;;;;26.70;13.75;;;9.20;66.00;;;;;;5046005;28;20014;-75
2022/03/12 11:03:25;;;;;;;29.50;15.18;;;9.30;67.10;;;;;;5009387;28;20022;-75
2022/03/12 11:05:54;;;;;;;28.90;15.50;;;9.40;69.00;;;;;;5010874;28;20511;-75
2022/03/12 11:08:28;;;;;;;26.27;14.48;;;9.60;70.60;;;;;;5011480;28;20014;-75
2022/03/12 11:10:57;;;;;;;25.02;14.00;;;9.70;69.40;;;;;;5022947;28;20034;-75
2022/03/12 11:13:35;;;;;;;27.02;14.73;;;9.80;68.00;;;;;;5009830;28;20033;-75
2022/03/12 11:16:07;;;;;;;24.17;14.35;;;9.90;68.90;;;;;;5002683;28;20026;-75
2022/03/12 11:18:34;;;;;;;24.10;14.65;;;9.80;65.90;;;;;;5010323;28;20091;-75
2022/03/12 11:21:00;;;;;;;30.00;14.52;;;9.90;66.70;;;;;;5080154;28;20033;-75
2022/03/12 11:23:30;;;;;;;27.23;14.02;;;9.90;66.90;;;;;;5009528;28;20024;-75
2022/03/12 11:26:06;;;;;;;24.77;14.45;;;9.80;65.00;;;;;;5010229;28;20037;-75
2022/03/12 11:28:37;;;;;;;30.05;14.77;;;9.90;66.10;;;;;;5005600;28;20022;-75
2022/03/12 11:31:04;;;;;;;26.25;14.30;;;9.90;66.10;;;;;;5005156;28;20026;-75
2022/03/12 11:33:31;;;;;;;29.20;15.45;;;10.00;66.30;;;;;;5040948;28;20472;-75
2022/03/12 11:35:59;;;;;;;28.27;15.50;;;10.10;66.90;;;;;;5074016;28;20117;-75
2022/03/12 11:38:24;;;;;;;28.35;14.68;;;10.20;67.20;;;;;;5001518;28;20118;-75
2022/03/12 11:41:24;;;;;;;31.33;14.88;;;10.20;65.10;;;;;;5005583;28;20108;-75
2022/03/12 11:43:49;;;;;;;30.95;16.08;;;10.30;65.20;;;;;;5007332;28;20112;-75
2022/03/12 11:46:16;;;;;;;29.83;15.07;;;10.30;64.50;;;;;;5009325;28;20110;-75
2022/03/12 11:48:41;;;;;;;28.00;15.40;;;10.40;64.70;;;;;;5089218;28;20029;-75
2022/03/12 11:51:18;;;;;;;29.23;16.23;;;10.50;64.00;;;;;;5013818;28;20083;-75
2022/03/12 11:53:45;;;;;;;35.22;16.90;;;10.50;63.20;;;;;;4990848;28;20101;-75
2022/03/12 11:56:11;;;;;;;32.15;17.42;;;10.50;62.10;;;;;;4990454;28;20018;-75
2022/03/12 11:58:37;;;;;;;25.55;15.25;;;10.50;61.10;;;;;;5031361;28;20117;-75
2022/03/12 12:01:04;;;;;;;32.72;16.85;;;10.60;61.90;;;;;;5016332;28;20121;-75
2022/03/12 12:03:30;;;;;;;30.88;16.88;;;10.70;60.90;;;;;;5065980;28;20030;-75
2022/03/12 12:05:56;;;;;;;32.80;17.65;;;10.80;59.80;;;;;;5001447;28;20034;-75
2022/03/12 12:08:22;;;;;;;34.10;17.02;;;10.90;60.30;;;;;;4998866;28;20503;-75
2022/03/12 12:10:51;;;;;;;35.20;17.40;;;10.90;58.30;;;;;;5007896;28;20033;-75
2022/03/12 12:13:18;;;;;;;35.78;18.40;;;10.90;57.00;;;;;;5008487;28;20117;-75
2022/03/12 12:15:45;;;;;;;33.45;16.73;;;10.90;58.00;;;;;;4998074;28;20029;-75
2022/03/12 12:18:12;;;;;;;38.85;18.67;;;10.90;57.20;;;;;;4990699;28;20018;-75
2022/03/12 12:20:40;;;;;;;30.92;16.83;;;11.00;57.40;;;;;;5056693;28;20023;-75
2022/03/12 12:23:06;;;;;;;33.65;18.10;;;11.00;56.80;;;;;;5006153;28;20065;-74
2022/03/12 12:25:37;;;;;;;33.03;16.30;;;11.20;56.20;;;;;;5014454;28;20506;-75
2022/03/12 12:28:21;;;;;;;34.22;16.17;;;11.10;53.70;;;;;;5009896;28;20483;-75
2022/03/12 12:30:53;;;;;;;40.40;16.73;;;11.30;54.70;;;;;;5006612;28;20041;-75
2022/03/12 12:33:24;;;;;;;26.67;15.38;;;11.30;54.10;;;;;;5015614;28;20038;-74
2022/03/12 12:36:12;;;;;;;30.47;17.10;;;11.40;53.50;;;;;;4991155;28;20029;-74
2022/03/12 12:38:40;;;;;;;27.83;14.88;;;11.50;53.30;;;;;;4989604;28;20026;-74
2022/03/12 12:41:06;;;;;;;33.38;17.15;;;11.40;50.00;;;;;;4989884;28;20033;-73
2022/03/12 12:43:39;;;;;;;38.53;16.95;;;11.40;49.50;;;;;;5060691;28;20434;-74
2022/03/12 12:46:09;;;;;;;31.85;16.58;;;11.50;50.50;;;;;;5008921;28;20492;-73